sensor_id;sensor_type;location;lat;lon;timestamp;P1;durP1;ratioP1;P2;durP2;ratioP2
38262;SDS011;24054;50.128;19.730;2023-04-01T00:01:04;6.85;;;3.00;;
38262;SDS011;24054;50.128;19.730;2023-04-01T00:03:33;5.07;;;3.10;;
38262;SDS011;24054;50.128;19.730;2023-04-01T00:08:28;4.60;;;2.90;;
38262;SDS011;24054;50.128;19.730;2023-04-01T00:10:55;4.40;;;2.75;;
38262;SDS011;24054;50.128;19.730;2023-04-01T00:13:23;4.57;;;3.17;;
38262;SDS011;24054;50.128;19.730;2023-04-01T00:15:50;3.80;;;2.67;;
38262;SDS011;24054;50.128;19.730;2023-04-01T00:18:18;4.00;;;2.60;;
38262;SDS011;24054;50.128;19.730;2023-04-01T00:20:47;3.80;;;2.65;;
38262;SDS011;24054;50.128;19.730;2023-04-01T00:23:16;4.45;;;2.63;;
38262;SDS011;24054;50.128;19.730;2023-04-01T00:25:43;3.83;;;2.53;;
38262;SDS011;24054;50.128;19.730;2023-04-01T00:28:12;3.53;;;2.67;;
38262;SDS011;24054;50.128;19.730;2023-04-01T00:30:40;3.55;;;2.53;;
38262;SDS011;24054;50.128;19.730;2023-04-01T00:33:07;3.58;;;2.40;;
38262;SDS011;24054;50.128;19.730;2023-04-01T00:35:34;3.90;;;2.47;;
38262;SDS011;24054;50.128;19.730;2023-04-01T00:38:02;4.07;;;2.70;;
38262;SDS011;24054;50.128;19.730;2023-04-01T00:40:30;3.85;;;2.70;;
38262;SDS011;24054;50.128;19.730;2023-04-01T00:43:00;4.25;;;2.53;;
38262;SDS011;24054;50.128;19.730;2023-04-01T00:45:29;3.63;;;2.35;;
38262;SDS011;24054;50.128;19.730;2023-04-01T00:47:58;5.18;;;2.35;;
38262;SDS011;24054;50.128;19.730;2023-04-01T00:50:29;4.13;;;2.90;;
38262;SDS011;24054;50.128;19.730;2023-04-01T00:52:58;3.65;;;2.08;;
38262;SDS011;24054;50.128;19.730;2023-04-01T00:55:28;2.85;;;2.35;;
38262;SDS011;24054;50.128;19.730;2023-04-01T00:57:58;4.75;;;2.53;;
38262;SDS011;24054;50.128;19.730;2023-04-01T01:00:28;3.53;;;2.33;;
38262;SDS011;24054;50.128;19.730;2023-04-01T01:02:56;3.58;;;2.28;;
38262;SDS011;24054;50.128;19.730;2023-04-01T01:05:27;3.35;;;2.00;;
38262;SDS011;24054;50.128;19.730;2023-04-01T01:08:01;3.00;;;2.30;;
38262;SDS011;24054;50.128;19.730;2023-04-01T01:10:37;3.60;;;2.25;;
38262;SDS011;24054;50.128;19.730;2023-04-01T01:13:08;3.85;;;2.40;;
38262;SDS011;24054;50.128;19.730;2023-04-01T01:15:39;3.70;;;2.40;;
38262;SDS011;24054;50.128;19.730;2023-04-01T01:18:14;3.50;;;2.38;;
38262;SDS011;24054;50.128;19.730;2023-04-01T01:20:57;3.20;;;2.05;;
38262;SDS011;24054;50.128;19.730;2023-04-01T01:23:57;4.97;;;2.30;;
38262;SDS011;24054;50.128;19.730;2023-04-01T01:26:48;4.38;;;2.50;;
38262;SDS011;24054;50.128;19.730;2023-04-01T01:29:30;3.83;;;2.25;;
38262;SDS011;24054;50.128;19.730;2023-04-01T01:32:21;3.35;;;2.17;;
38262;SDS011;24054;50.128;19.730;2023-04-01T01:35:20;3.70;;;2.13;;
38262;SDS011;24054;50.128;19.730;2023-04-01T01:37:51;2.67;;;1.85;;
38262;SDS011;24054;50.128;19.730;2023-04-01T01:40:21;3.55;;;2.20;;
38262;SDS011;24054;50.128;19.730;2023-04-01T01:45:20;3.83;;;2.10;;
38262;SDS011;24054;50.128;19.730;2023-04-01T01:47:49;2.95;;;2.17;;
38262;SDS011;24054;50.128;19.730;2023-04-01T01:50:17;3.35;;;2.10;;
38262;SDS011;24054;50.128;19.730;2023-04-01T01:52:47;3.55;;;2.20;;
38262;SDS011;24054;50.128;19.730;2023-04-01T01:55:25;3.72;;;2.28;;
38262;SDS011;24054;50.128;19.730;2023-04-01T01:57:54;2.60;;;1.85;;
38262;SDS011;24054;50.128;19.730;2023-04-01T02:00:24;2.10;;;1.85;;
38262;SDS011;24054;50.128;19.730;2023-04-01T02:02:51;3.05;;;1.88;;
38262;SDS011;24054;50.128;19.730;2023-04-01T02:05:19;3.88;;;2.20;;
38262;SDS011;24054;50.128;19.730;2023-04-01T02:07:51;3.72;;;2.22;;
38262;SDS011;24054;50.128;19.730;2023-04-01T02:10:25;4.25;;;2.15;;
38262;SDS011;24054;50.128;19.730;2023-04-01T02:15:22;3.90;;;2.30;;
38262;SDS011;24054;50.128;19.730;2023-04-01T02:17:55;3.65;;;2.17;;
38262;SDS011;24054;50.128;19.730;2023-04-01T02:20:24;3.83;;;2.20;;
38262;SDS011;24054;50.128;19.730;2023-04-01T02:22:53;2.85;;;1.98;;
38262;SDS011;24054;50.128;19.730;2023-04-01T02:25:23;3.17;;;1.80;;
38262;SDS011;24054;50.128;19.730;2023-04-01T02:27:53;3.42;;;2.00;;
38262;SDS011;24054;50.128;19.730;2023-04-01T02:30:22;2.97;;;2.10;;
38262;SDS011;24054;50.128;19.730;2023-04-01T02:32:51;2.60;;;1.98;;
38262;SDS011;24054;50.128;19.730;2023-04-01T02:35:19;3.85;;;2.08;;
38262;SDS011;24054;50.128;19.730;2023-04-01T02:37:48;3.65;;;1.80;;
38262;SDS011;24054;50.128;19.730;2023-04-01T02:40:17;2.25;;;1.75;;
38262;SDS011;24054;50.128;19.730;2023-04-01T02:42:44;2.58;;;2.05;;
38262;SDS011;24054;50.128;19.730;2023-04-01T02:45:12;2.35;;;1.85;;
38262;SDS011;24054;50.128;19.730;2023-04-01T02:47:40;3.08;;;2.00;;
38262;SDS011;24054;50.128;19.730;2023-04-01T02:50:07;3.35;;;1.77;;
38262;SDS011;24054;50.128;19.730;2023-04-01T02:52:35;2.60;;;1.50;;
38262;SDS011;24054;50.128;19.730;2023-04-01T02:55:03;2.30;;;1.92;;
38262;SDS011;24054;50.128;19.730;2023-04-01T02:57:31;2.50;;;1.75;;
38262;SDS011;24054;50.128;19.730;2023-04-01T02:59:59;3.40;;;1.95;;
38262;SDS011;24054;50.128;19.730;2023-04-01T03:02:26;4.32;;;1.95;;
38262;SDS011;24054;50.128;19.730;2023-04-01T03:04:53;2.63;;;2.00;;
38262;SDS011;24054;50.128;19.730;2023-04-01T03:07:20;2.83;;;1.80;;
38262;SDS011;24054;50.128;19.730;2023-04-01T03:09:46;2.88;;;1.60;;
38262;SDS011;24054;50.128;19.730;2023-04-01T03:12:15;2.72;;;1.85;;
38262;SDS011;24054;50.128;19.730;2023-04-01T03:14:42;2.55;;;1.65;;
38262;SDS011;24054;50.128;19.730;2023-04-01T03:17:09;3.55;;;1.80;;
38262;SDS011;24054;50.128;19.730;2023-04-01T03:19:36;1.95;;;1.63;;
38262;SDS011;24054;50.128;19.730;2023-04-01T03:22:03;2.90;;;1.67;;
38262;SDS011;24054;50.128;19.730;2023-04-01T03:24:30;2.10;;;1.67;;
38262;SDS011;24054;50.128;19.730;2023-04-01T03:26:57;2.35;;;1.60;;
38262;SDS011;24054;50.128;19.730;2023-04-01T03:29:25;2.47;;;1.70;;
38262;SDS011;24054;50.128;19.730;2023-04-01T03:31:52;2.72;;;1.90;;
38262;SDS011;24054;50.128;19.730;2023-04-01T03:34:19;2.28;;;1.65;;
38262;SDS011;24054;50.128;19.730;2023-04-01T03:36:46;3.33;;;2.15;;
38262;SDS011;24054;50.128;19.730;2023-04-01T03:39:13;2.80;;;1.55;;
38262;SDS011;24054;50.128;19.730;2023-04-01T03:41:43;2.33;;;1.65;;
38262;SDS011;24054;50.128;19.730;2023-04-01T03:44:10;2.30;;;1.67;;
38262;SDS011;24054;50.128;19.730;2023-04-01T03:46:39;2.60;;;1.83;;
38262;SDS011;24054;50.128;19.730;2023-04-01T03:49:06;1.65;;;1.48;;
38262;SDS011;24054;50.128;19.730;2023-04-01T03:51:36;2.40;;;1.75;;
38262;SDS011;24054;50.128;19.730;2023-04-01T03:54:03;2.97;;;1.90;;
38262;SDS011;24054;50.128;19.730;2023-04-01T03:56:31;1.90;;;1.40;;
38262;SDS011;24054;50.128;19.730;2023-04-01T03:58:58;2.20;;;1.67;;
38262;SDS011;24054;50.128;19.730;2023-04-01T04:01:27;3.42;;;1.60;;
38262;SDS011;24054;50.128;19.730;2023-04-01T04:03:56;3.47;;;1.70;;
38262;SDS011;24054;50.128;19.730;2023-04-01T04:06:27;2.05;;;1.55;;
38262;SDS011;24054;50.128;19.730;2023-04-01T04:08:55;2.08;;;1.45;;
38262;SDS011;24054;50.128;19.730;2023-04-01T04:11:22;1.92;;;1.52;;
38262;SDS011;24054;50.128;19.730;2023-04-01T04:13:49;3.05;;;1.80;;
38262;SDS011;24054;50.128;19.730;2023-04-01T04:16:17;3.30;;;1.95;;
38262;SDS011;24054;50.128;19.730;2023-04-01T04:18:44;2.08;;;1.60;;
38262;SDS011;24054;50.128;19.730;2023-04-01T04:21:13;2.92;;;1.50;;
38262;SDS011;24054;50.128;19.730;2023-04-01T04:23:41;2.25;;;1.42;;
38262;SDS011;24054;50.128;19.730;2023-04-01T04:26:08;1.83;;;1.42;;
38262;SDS011;24054;50.128;19.730;2023-04-01T04:28:37;2.78;;;1.77;;
38262;SDS011;24054;50.128;19.730;2023-04-01T04:31:05;2.42;;;1.88;;
38262;SDS011;24054;50.128;19.730;2023-04-01T04:33:33;1.40;;;1.20;;
38262;SDS011;24054;50.128;19.730;2023-04-01T04:36:00;2.13;;;1.70;;
38262;SDS011;24054;50.128;19.730;2023-04-01T04:38:29;3.10;;;1.73;;
38262;SDS011;24054;50.128;19.730;2023-04-01T04:40:56;2.70;;;1.70;;
38262;SDS011;24054;50.128;19.730;2023-04-01T04:43:23;2.88;;;1.85;;
38262;SDS011;24054;50.128;19.730;2023-04-01T04:45:50;2.20;;;1.50;;
38262;SDS011;24054;50.128;19.730;2023-04-01T04:48:17;2.00;;;1.40;;
38262;SDS011;24054;50.128;19.730;2023-04-01T04:50:45;1.90;;;1.45;;
38262;SDS011;24054;50.128;19.730;2023-04-01T04:53:13;2.70;;;1.45;;
38262;SDS011;24054;50.128;19.730;2023-04-01T04:55:43;2.60;;;1.80;;
38262;SDS011;24054;50.128;19.730;2023-04-01T04:58:10;2.88;;;1.50;;
38262;SDS011;24054;50.128;19.730;2023-04-01T05:00:37;2.83;;;1.83;;
38262;SDS011;24054;50.128;19.730;2023-04-01T05:03:04;3.05;;;1.63;;
38262;SDS011;24054;50.128;19.730;2023-04-01T05:05:31;2.03;;;1.48;;
38262;SDS011;24054;50.128;19.730;2023-04-01T05:07:58;2.25;;;1.65;;
38262;SDS011;24054;50.128;19.730;2023-04-01T05:10:25;2.05;;;1.60;;
38262;SDS011;24054;50.128;19.730;2023-04-01T05:12:54;2.63;;;1.75;;
38262;SDS011;24054;50.128;19.730;2023-04-01T05:15:21;2.55;;;1.90;;
38262;SDS011;24054;50.128;19.730;2023-04-01T05:17:48;2.50;;;1.65;;
38262;SDS011;24054;50.128;19.730;2023-04-01T05:20:15;2.13;;;1.42;;
38262;SDS011;24054;50.128;19.730;2023-04-01T05:22:42;3.47;;;1.58;;
38262;SDS011;24054;50.128;19.730;2023-04-01T05:25:10;2.35;;;1.50;;
38262;SDS011;24054;50.128;19.730;2023-04-01T05:27:37;1.67;;;1.25;;
38262;SDS011;24054;50.128;19.730;2023-04-01T05:30:06;2.00;;;1.25;;
38262;SDS011;24054;50.128;19.730;2023-04-01T05:32:33;3.17;;;1.65;;
38262;SDS011;24054;50.128;19.730;2023-04-01T05:35:00;1.95;;;1.45;;
38262;SDS011;24054;50.128;19.730;2023-04-01T05:37:27;1.85;;;1.60;;
38262;SDS011;24054;50.128;19.730;2023-04-01T05:39:54;4.13;;;1.70;;
38262;SDS011;24054;50.128;19.730;2023-04-01T05:42:23;2.90;;;1.63;;
38262;SDS011;24054;50.128;19.730;2023-04-01T05:44:50;3.38;;;1.50;;
38262;SDS011;24054;50.128;19.730;2023-04-01T05:47:19;2.88;;;1.75;;
38262;SDS011;24054;50.128;19.730;2023-04-01T05:49:46;2.13;;;1.58;;
38262;SDS011;24054;50.128;19.730;2023-04-01T05:52:13;2.30;;;1.50;;
38262;SDS011;24054;50.128;19.730;2023-04-01T05:54:42;2.15;;;1.40;;
38262;SDS011;24054;50.128;19.730;2023-04-01T05:57:09;1.85;;;1.50;;
38262;SDS011;24054;50.128;19.730;2023-04-01T05:59:37;2.63;;;1.67;;
38262;SDS011;24054;50.128;19.730;2023-04-01T06:02:03;3.88;;;1.65;;
38262;SDS011;24054;50.128;19.730;2023-04-01T06:04:34;5.95;;;2.30;;
38262;SDS011;24054;50.128;19.730;2023-04-01T06:07:08;5.32;;;2.40;;
38262;SDS011;24054;50.128;19.730;2023-04-01T06:09:38;4.97;;;3.17;;
38262;SDS011;24054;50.128;19.730;2023-04-01T06:12:13;6.88;;;3.80;;
38262;SDS011;24054;50.128;19.730;2023-04-01T06:15:18;8.30;;;3.38;;
38262;SDS011;24054;50.128;19.730;2023-04-01T06:17:59;9.38;;;3.53;;
38262;SDS011;24054;50.128;19.730;2023-04-01T06:20:45;10.00;;;3.88;;
38262;SDS011;24054;50.128;19.730;2023-04-01T06:23:20;15.25;;;5.70;;
38262;SDS011;24054;50.128;19.730;2023-04-01T06:26:07;9.85;;;4.68;;
38262;SDS011;24054;50.128;19.730;2023-04-01T06:28:50;9.95;;;4.45;;
38262;SDS011;24054;50.128;19.730;2023-04-01T06:31:46;8.52;;;4.10;;
38262;SDS011;24054;50.128;19.730;2023-04-01T06:34:43;13.05;;;5.28;;
38262;SDS011;24054;50.128;19.730;2023-04-01T06:37:26;11.23;;;4.65;;
38262;SDS011;24054;50.128;19.730;2023-04-01T06:40:23;9.38;;;4.72;;
38262;SDS011;24054;50.128;19.730;2023-04-01T06:43:06;8.52;;;4.28;;
38262;SDS011;24054;50.128;19.730;2023-04-01T06:45:40;9.82;;;4.63;;
38262;SDS011;24054;50.128;19.730;2023-04-01T06:48:19;11.18;;;5.03;;
38262;SDS011;24054;50.128;19.730;2023-04-01T06:51:02;8.85;;;4.90;;
38262;SDS011;24054;50.128;19.730;2023-04-01T06:53:42;12.13;;;6.18;;
38262;SDS011;24054;50.128;19.730;2023-04-01T06:56:17;14.25;;;4.85;;
38262;SDS011;24054;50.128;19.730;2023-04-01T06:58:48;25.75;;;5.13;;
38262;SDS011;24054;50.128;19.730;2023-04-01T07:01:20;12.57;;;5.03;;
38262;SDS011;24054;50.128;19.730;2023-04-01T07:03:53;10.93;;;5.15;;
38262;SDS011;24054;50.128;19.730;2023-04-01T07:06:26;13.07;;;4.65;;
38262;SDS011;24054;50.128;19.730;2023-04-01T07:08:58;13.60;;;5.15;;
38262;SDS011;24054;50.128;19.730;2023-04-01T07:11:31;11.35;;;5.00;;
38262;SDS011;24054;50.128;19.730;2023-04-01T07:14:01;10.73;;;4.88;;
38262;SDS011;24054;50.128;19.730;2023-04-01T07:16:33;14.07;;;5.45;;
38262;SDS011;24054;50.128;19.730;2023-04-01T07:19:05;12.07;;;4.45;;
38262;SDS011;24054;50.128;19.730;2023-04-01T07:21:39;9.05;;;4.63;;
38262;SDS011;24054;50.128;19.730;2023-04-01T07:24:11;10.38;;;4.82;;
38262;SDS011;24054;50.128;19.730;2023-04-01T07:26:47;10.50;;;4.60;;
38262;SDS011;24054;50.128;19.730;2023-04-01T07:29:15;12.43;;;4.93;;
38262;SDS011;24054;50.128;19.730;2023-04-01T07:32:02;8.25;;;4.63;;
38262;SDS011;24054;50.128;19.730;2023-04-01T07:34:41;11.32;;;4.53;;
38262;SDS011;24054;50.128;19.730;2023-04-01T07:37:17;9.60;;;4.20;;
38262;SDS011;24054;50.128;19.730;2023-04-01T07:39:55;8.68;;;4.25;;
38262;SDS011;24054;50.128;19.730;2023-04-01T07:42:31;8.70;;;4.25;;
38262;SDS011;24054;50.128;19.730;2023-04-01T07:45:05;10.57;;;4.97;;
38262;SDS011;24054;50.128;19.730;2023-04-01T07:47:45;8.60;;;4.28;;
38262;SDS011;24054;50.128;19.730;2023-04-01T07:50:27;11.85;;;3.70;;
38262;SDS011;24054;50.128;19.730;2023-04-01T07:52:59;8.73;;;3.95;;
38262;SDS011;24054;50.128;19.730;2023-04-01T07:55:36;7.20;;;4.05;;
38262;SDS011;24054;50.128;19.730;2023-04-01T07:58:10;6.82;;;3.65;;
38262;SDS011;24054;50.128;19.730;2023-04-01T08:00:47;7.18;;;3.55;;
38262;SDS011;24054;50.128;19.730;2023-04-01T08:03:26;7.25;;;3.35;;
38262;SDS011;24054;50.128;19.730;2023-04-01T08:06:00;9.73;;;3.85;;
38262;SDS011;24054;50.128;19.730;2023-04-01T08:08:40;5.97;;;3.42;;
38262;SDS011;24054;50.128;19.730;2023-04-01T08:11:20;9.35;;;3.97;;
38262;SDS011;24054;50.128;19.730;2023-04-01T08:13:58;6.80;;;3.53;;
38262;SDS011;24054;50.128;19.730;2023-04-01T08:16:37;8.48;;;3.45;;
38262;SDS011;24054;50.128;19.730;2023-04-01T08:19:15;12.05;;;3.92;;
38262;SDS011;24054;50.128;19.730;2023-04-01T08:21:52;19.75;;;4.65;;
38262;SDS011;24054;50.128;19.730;2023-04-01T08:24:25;8.00;;;3.35;;
38262;SDS011;24054;50.128;19.730;2023-04-01T08:26:57;7.30;;;2.90;;
38262;SDS011;24054;50.128;19.730;2023-04-01T08:29:30;6.18;;;3.00;;
38262;SDS011;24054;50.128;19.730;2023-04-01T08:32:05;8.00;;;3.95;;
38262;SDS011;24054;50.128;19.730;2023-04-01T08:34:36;7.40;;;2.78;;
38262;SDS011;24054;50.128;19.730;2023-04-01T08:37:07;9.20;;;3.00;;
38262;SDS011;24054;50.128;19.730;2023-04-01T08:39:38;5.72;;;2.72;;
38262;SDS011;24054;50.128;19.730;2023-04-01T08:45:18;8.10;;;3.50;;
38262;SDS011;24054;50.128;19.730;2023-04-01T08:48:01;7.25;;;3.13;;
38262;SDS011;24054;50.128;19.730;2023-04-01T08:54:04;7.20;;;2.83;;
38262;SDS011;24054;50.128;19.730;2023-04-01T08:56:57;5.05;;;3.08;;
38262;SDS011;24054;50.128;19.730;2023-04-01T08:59:50;6.13;;;2.60;;
38262;SDS011;24054;50.128;19.730;2023-04-01T09:02:49;8.30;;;3.27;;
38262;SDS011;24054;50.128;19.730;2023-04-01T09:05:53;7.50;;;2.80;;
38262;SDS011;24054;50.128;19.730;2023-04-01T09:08:46;9.25;;;2.78;;
38262;SDS011;24054;50.128;19.730;2023-04-01T09:11:23;5.32;;;2.95;;
38262;SDS011;24054;50.128;19.730;2023-04-01T09:14:07;6.07;;;3.15;;
38262;SDS011;24054;50.128;19.730;2023-04-01T09:17:04;5.32;;;2.65;;
38262;SDS011;24054;50.128;19.730;2023-04-01T09:19:55;5.22;;;2.80;;
38262;SDS011;24054;50.128;19.730;2023-04-01T09:22:50;5.78;;;2.67;;
38262;SDS011;24054;50.128;19.730;2023-04-01T09:28:28;5.78;;;2.70;;
38262;SDS011;24054;50.128;19.730;2023-04-01T09:31:15;8.23;;;3.22;;
38262;SDS011;24054;50.128;19.730;2023-04-01T09:34:25;6.05;;;2.72;;
38262;SDS011;24054;50.128;19.730;2023-04-01T09:37:14;5.03;;;2.28;;
38262;SDS011;24054;50.128;19.730;2023-04-01T09:39:48;5.55;;;2.63;;
38262;SDS011;24054;50.128;19.730;2023-04-01T09:45:16;5.40;;;2.20;;
38262;SDS011;24054;50.128;19.730;2023-04-01T09:48:00;7.68;;;2.63;;
38262;SDS011;24054;50.128;19.730;2023-04-01T09:50:40;5.72;;;2.38;;
38262;SDS011;24054;50.128;19.730;2023-04-01T09:53:22;6.10;;;2.17;;
38262;SDS011;24054;50.128;19.730;2023-04-01T09:56:23;7.70;;;2.53;;
38262;SDS011;24054;50.128;19.730;2023-04-01T10:02:44;6.10;;;2.70;;
38262;SDS011;24054;50.128;19.730;2023-04-01T10:05:58;6.93;;;2.90;;
38262;SDS011;24054;50.128;19.730;2023-04-01T10:12:01;7.78;;;2.80;;
38262;SDS011;24054;50.128;19.730;2023-04-01T10:17:54;7.45;;;2.47;;
38262;SDS011;24054;50.128;19.730;2023-04-01T10:20:42;4.80;;;2.33;;
38262;SDS011;24054;50.128;19.730;2023-04-01T10:26:24;5.85;;;2.38;;
38262;SDS011;24054;50.128;19.730;2023-04-01T10:32:31;5.50;;;2.50;;
38262;SDS011;24054;50.128;19.730;2023-04-01T10:35:37;3.67;;;2.10;;
38262;SDS011;24054;50.128;19.730;2023-04-01T10:47:46;5.65;;;1.75;;
38262;SDS011;24054;50.128;19.730;2023-04-01T10:53:37;2.97;;;1.92;;
38262;SDS011;24054;50.128;19.730;2023-04-01T11:05:35;5.57;;;1.80;;
38262;SDS011;24054;50.128;19.730;2023-04-01T11:08:39;5.53;;;2.10;;
38262;SDS011;24054;50.128;19.730;2023-04-01T11:14:50;4.80;;;1.98;;
38262;SDS011;24054;50.128;19.730;2023-04-01T11:23:37;6.43;;;1.65;;
38262;SDS011;24054;50.128;19.730;2023-04-01T11:26:32;2.88;;;1.90;;
38262;SDS011;24054;50.128;19.730;2023-04-01T11:29:29;3.60;;;2.10;;
38262;SDS011;24054;50.128;19.730;2023-04-01T11:32:29;3.70;;;1.67;;
38262;SDS011;24054;50.128;19.730;2023-04-01T11:35:13;3.05;;;1.50;;
38262;SDS011;24054;50.128;19.730;2023-04-01T11:37:57;3.42;;;1.67;;
38262;SDS011;24054;50.128;19.730;2023-04-01T11:40:34;3.28;;;1.60;;
38262;SDS011;24054;50.128;19.730;2023-04-01T11:43:07;4.03;;;1.70;;
38262;SDS011;24054;50.128;19.730;2023-04-01T11:45:43;4.90;;;1.55;;
38262;SDS011;24054;50.128;19.730;2023-04-01T11:51:17;3.35;;;1.60;;
38262;SDS011;24054;50.128;19.730;2023-04-01T11:54:05;3.90;;;1.67;;
38262;SDS011;24054;50.128;19.730;2023-04-01T11:56:50;3.70;;;2.00;;
38262;SDS011;24054;50.128;19.730;2023-04-01T11:59:38;5.55;;;1.80;;
38262;SDS011;24054;50.128;19.730;2023-04-01T12:02:31;5.43;;;1.73;;
38262;SDS011;24054;50.128;19.730;2023-04-01T12:05:15;2.40;;;1.38;;
38262;SDS011;24054;50.128;19.730;2023-04-01T12:07:53;3.40;;;1.77;;
38262;SDS011;24054;50.128;19.730;2023-04-01T12:10:35;6.47;;;1.75;;
38262;SDS011;24054;50.128;19.730;2023-04-01T12:13:09;4.18;;;2.25;;
38262;SDS011;24054;50.128;19.730;2023-04-01T12:15:54;5.53;;;1.92;;
38262;SDS011;24054;50.128;19.730;2023-04-01T12:18:35;3.97;;;1.80;;
38262;SDS011;24054;50.128;19.730;2023-04-01T12:21:13;7.97;;;2.05;;
38262;SDS011;24054;50.128;19.730;2023-04-01T12:23:52;8.00;;;2.30;;
38262;SDS011;24054;50.128;19.730;2023-04-01T12:30:01;4.78;;;1.70;;
38262;SDS011;24054;50.128;19.730;2023-04-01T12:32:42;9.07;;;2.35;;
38262;SDS011;24054;50.128;19.730;2023-04-01T12:35:21;5.32;;;2.15;;
38262;SDS011;24054;50.128;19.730;2023-04-01T12:37:55;6.65;;;1.80;;
38262;SDS011;24054;50.128;19.730;2023-04-01T12:43:34;7.13;;;1.70;;
38262;SDS011;24054;50.128;19.730;2023-04-01T12:46:29;4.75;;;1.70;;
38262;SDS011;24054;50.128;19.730;2023-04-01T12:49:08;4.18;;;1.85;;
38262;SDS011;24054;50.128;19.730;2023-04-01T12:57:55;4.68;;;1.60;;
38262;SDS011;24054;50.128;19.730;2023-04-01T13:03:37;4.60;;;1.70;;
38262;SDS011;24054;50.128;19.730;2023-04-01T13:06:20;7.63;;;1.75;;
38262;SDS011;24054;50.128;19.730;2023-04-01T13:08:54;2.67;;;1.77;;
38262;SDS011;24054;50.128;19.730;2023-04-01T13:11:31;6.30;;;1.80;;
38262;SDS011;24054;50.128;19.730;2023-04-01T13:14:20;4.43;;;1.23;;
38262;SDS011;24054;50.128;19.730;2023-04-01T13:16:59;3.00;;;1.40;;
38262;SDS011;24054;50.128;19.730;2023-04-01T13:19:38;2.40;;;1.35;;
38262;SDS011;24054;50.128;19.730;2023-04-01T13:22:11;3.58;;;1.60;;
38262;SDS011;24054;50.128;19.730;2023-04-01T13:24:49;2.67;;;1.58;;
38262;SDS011;24054;50.128;19.730;2023-04-01T13:27:25;4.35;;;1.50;;
38262;SDS011;24054;50.128;19.730;2023-04-01T13:30:07;4.70;;;1.70;;
38262;SDS011;24054;50.128;19.730;2023-04-01T13:32:47;3.00;;;1.20;;
38262;SDS011;24054;50.128;19.730;2023-04-01T13:35:24;6.35;;;1.63;;
38262;SDS011;24054;50.128;19.730;2023-04-01T13:38:05;7.78;;;1.90;;
38262;SDS011;24054;50.128;19.730;2023-04-01T13:40:52;6.25;;;1.60;;
38262;SDS011;24054;50.128;19.730;2023-04-01T13:43:28;4.43;;;1.65;;
38262;SDS011;24054;50.128;19.730;2023-04-01T13:46:06;4.43;;;1.73;;
38262;SDS011;24054;50.128;19.730;2023-04-01T13:48:49;4.57;;;1.50;;
38262;SDS011;24054;50.128;19.730;2023-04-01T13:57:44;3.53;;;1.60;;
38262;SDS011;24054;50.128;19.730;2023-04-01T14:00:39;3.03;;;1.70;;
38262;SDS011;24054;50.128;19.730;2023-04-01T14:06:19;4.82;;;1.45;;
38262;SDS011;24054;50.128;19.730;2023-04-01T14:09:08;1.35;;;1.20;;
38262;SDS011;24054;50.128;19.730;2023-04-01T14:11:45;4.45;;;1.58;;
38262;SDS011;24054;50.128;19.730;2023-04-01T14:14:26;3.67;;;1.50;;
38262;SDS011;24054;50.128;19.730;2023-04-01T14:17:07;3.05;;;1.42;;
38262;SDS011;24054;50.128;19.730;2023-04-01T14:19:50;5.18;;;1.13;;
38262;SDS011;24054;50.128;19.730;2023-04-01T14:22:35;3.47;;;1.40;;
38262;SDS011;24054;50.128;19.730;2023-04-01T14:25:25;3.88;;;1.40;;
38262;SDS011;24054;50.128;19.730;2023-04-01T14:28:08;3.05;;;1.63;;
38262;SDS011;24054;50.128;19.730;2023-04-01T14:30:52;2.90;;;1.38;;
38262;SDS011;24054;50.128;19.730;2023-04-01T14:33:33;2.90;;;1.50;;
38262;SDS011;24054;50.128;19.730;2023-04-01T14:36:18;2.63;;;1.38;;
38262;SDS011;24054;50.128;19.730;2023-04-01T14:39:12;2.55;;;1.10;;
38262;SDS011;24054;50.128;19.730;2023-04-01T14:41:51;3.03;;;1.48;;
38262;SDS011;24054;50.128;19.730;2023-04-01T14:44:44;3.97;;;1.35;;
38262;SDS011;24054;50.128;19.730;2023-04-01T14:47:45;2.55;;;1.10;;
38262;SDS011;24054;50.128;19.730;2023-04-01T14:50:15;1.85;;;1.58;;
38262;SDS011;24054;50.128;19.730;2023-04-01T14:52:47;2.60;;;1.17;;
38262;SDS011;24054;50.128;19.730;2023-04-01T14:58:09;3.47;;;1.58;;
38262;SDS011;24054;50.128;19.730;2023-04-01T15:03:36;3.15;;;1.88;;
38262;SDS011;24054;50.128;19.730;2023-04-01T15:06:15;4.88;;;1.50;;
38262;SDS011;24054;50.128;19.730;2023-04-01T15:09:05;3.13;;;1.60;;
38262;SDS011;24054;50.128;19.730;2023-04-01T15:11:46;2.92;;;1.73;;
38262;SDS011;24054;50.128;19.730;2023-04-01T15:14:26;4.20;;;1.63;;
38262;SDS011;24054;50.128;19.730;2023-04-01T15:17:15;4.03;;;1.50;;
38262;SDS011;24054;50.128;19.730;2023-04-01T15:32:27;14.32;;;1.40;;
38262;SDS011;24054;50.128;19.730;2023-04-01T15:35:09;2.80;;;1.65;;
38262;SDS011;24054;50.128;19.730;2023-04-01T15:37:50;5.07;;;1.60;;
38262;SDS011;24054;50.128;19.730;2023-04-01T15:40:22;3.08;;;1.85;;
38262;SDS011;24054;50.128;19.730;2023-04-01T15:43:05;2.97;;;1.42;;
38262;SDS011;24054;50.128;19.730;2023-04-01T15:45:49;4.72;;;1.95;;
38262;SDS011;24054;50.128;19.730;2023-04-01T15:48:29;4.07;;;1.60;;
38262;SDS011;24054;50.128;19.730;2023-04-01T15:51:19;4.43;;;1.67;;
38262;SDS011;24054;50.128;19.730;2023-04-01T15:54:20;3.55;;;1.52;;
38262;SDS011;24054;50.128;19.730;2023-04-01T15:57:02;3.92;;;1.20;;
38262;SDS011;24054;50.128;19.730;2023-04-01T15:59:49;6.50;;;1.67;;
38262;SDS011;24054;50.128;19.730;2023-04-01T16:02:39;4.78;;;1.75;;
38262;SDS011;24054;50.128;19.730;2023-04-01T16:05:20;3.03;;;1.55;;
38262;SDS011;24054;50.128;19.730;2023-04-01T16:08:07;2.58;;;1.58;;
38262;SDS011;24054;50.128;19.730;2023-04-01T16:10:58;4.40;;;1.48;;
38262;SDS011;24054;50.128;19.730;2023-04-01T16:13:42;3.28;;;1.77;;
38262;SDS011;24054;50.128;19.730;2023-04-01T16:16:22;5.47;;;2.28;;
38262;SDS011;24054;50.128;19.730;2023-04-01T16:19:01;4.38;;;1.55;;
38262;SDS011;24054;50.128;19.730;2023-04-01T16:21:43;3.65;;;1.60;;
38262;SDS011;24054;50.128;19.730;2023-04-01T16:24:17;5.25;;;2.10;;
38262;SDS011;24054;50.128;19.730;2023-04-01T16:26:52;4.55;;;2.13;;
38262;SDS011;24054;50.128;19.730;2023-04-01T16:29:25;3.70;;;1.73;;
38262;SDS011;24054;50.128;19.730;2023-04-01T16:31:59;4.35;;;1.95;;
38262;SDS011;24054;50.128;19.730;2023-04-01T16:34:41;3.10;;;1.48;;
38262;SDS011;24054;50.128;19.730;2023-04-01T16:37:13;4.25;;;1.52;;
38262;SDS011;24054;50.128;19.730;2023-04-01T16:39:47;3.97;;;2.33;;
38262;SDS011;24054;50.128;19.730;2023-04-01T16:42:24;4.30;;;1.58;;
38262;SDS011;24054;50.128;19.730;2023-04-01T16:45:06;4.75;;;2.05;;
38262;SDS011;24054;50.128;19.730;2023-04-01T16:47:45;3.92;;;1.80;;
38262;SDS011;24054;50.128;19.730;2023-04-01T16:50:17;4.68;;;1.60;;
38262;SDS011;24054;50.128;19.730;2023-04-01T16:52:53;2.30;;;1.63;;
38262;SDS011;24054;50.128;19.730;2023-04-01T16:55:41;3.45;;;2.13;;
38262;SDS011;24054;50.128;19.730;2023-04-01T16:58:18;2.83;;;1.95;;
38262;SDS011;24054;50.128;19.730;2023-04-01T17:00:49;5.70;;;2.03;;
38262;SDS011;24054;50.128;19.730;2023-04-01T17:03:21;3.10;;;1.98;;
38262;SDS011;24054;50.128;19.730;2023-04-01T17:06:02;4.28;;;2.30;;
38262;SDS011;24054;50.128;19.730;2023-04-01T17:08:45;5.47;;;2.38;;
38262;SDS011;24054;50.128;19.730;2023-04-01T17:11:35;3.10;;;2.15;;
38262;SDS011;24054;50.128;19.730;2023-04-01T17:14:12;4.35;;;2.00;;
38262;SDS011;24054;50.128;19.730;2023-04-01T17:19:45;5.18;;;2.20;;
38262;SDS011;24054;50.128;19.730;2023-04-01T17:22:26;4.47;;;2.40;;
38262;SDS011;24054;50.128;19.730;2023-04-01T17:27:36;4.13;;;2.22;;